This is the latest recevied weather packets stored in our database for station/object KK4KTV-13. If no packets are shown the sender has not sent any weather packets the latest 10 day(s).
| Time | Temp. | Humidity | Pressure | Rain* | Wind** | Luminosity | Snow |
|---|---|---|---|---|---|---|---|
| 1777752688 | 12.78° C | 55% | 1015.7 hPa | 0 mm | - | 148 W/m² | - |
| 1777752384 | 12.78° C | 55% | 1015.9 hPa | 0 mm | - | 147 W/m² | - |
| 1777752082 | 12.78° C | 55% | 1015.6 hPa | 0 mm | - | 136 W/m² | - |
| 1777751780 | 13.33° C | 54% | 1015.8 hPa | 0 mm | - | 132 W/m² | - |
| 1777751475 | 13.33° C | 53% | 1015.8 hPa | 0 mm | - | 108 W/m² | - |
| 1777751173 | 13.33° C | 52% | 1015.7 hPa | 0 mm | - | 121 W/m² | - |
| 1777750869 | 13.33° C | 52% | 1015.9 hPa | 0 mm | - | 171 W/m² | - |
| 1777750566 | 13.33° C | 53% | 1015.8 hPa | 0 mm | - | 218 W/m² | - |
| 1777750263 | 12.78° C | 54% | 1015.9 hPa | 0 mm | - | 173 W/m² | - |
| 1777749958 | 12.78° C | 55% | 1015.8 hPa | 0 mm | - | 157 W/m² | - |
| 1777749656 | 12.78° C | 54% | 1015.9 hPa | 0 mm | - | 135 W/m² | - |
| 1777749352 | 12.78° C | 56% | 1015.8 hPa | 0 mm | - | 104 W/m² | - |
| 1777749050 | 12.78° C | 55% | 1015.9 hPa | 0 mm | - | 82 W/m² | - |
| 1777748748 | 12.78° C | 54% | 1015.7 hPa | 0 mm | - | 82 W/m² | - |
| 1777748445 | 12.78° C | 53% | 1015.7 hPa | 0 mm | - | 95 W/m² | - |
| 1777748139 | 12.78° C | 54% | 1015.9 hPa | 0 mm | - | 113 W/m² | - |
| 1777747836 | 13.33° C | 52% | 1015.9 hPa | 0 mm | - | 119 W/m² | - |
| 1777747532 | 13.33° C | 52% | 1015.8 hPa | 0 mm | - | 93 W/m² | - |
| 1777747229 | 13.89° C | 50% | 1015.7 hPa | 0 mm | - | 73 W/m² | - |
| 1777746925 | 13.89° C | 48% | 1015.7 hPa | 0 mm | - | 100 W/m² | - |
| 1777746621 | 14.44° C | 47% | 1015.8 hPa | 0 mm | - | 215 W/m² | - |
| 1777746315 | 15° C | 48% | 1015.8 hPa | 0 mm | - | 278 W/m² | - |
| 1777746011 | 14.44° C | 50% | 1015.9 hPa | 0 mm | - | 260 W/m² | - |
| 1777745710 | 13.89° C | 50% | 1015.9 hPa | 0 mm | - | 222 W/m² | - |
| 1777745408 | 13.89° C | 50% | 1015.8 hPa | 0 mm | - | 261 W/m² | - |
* Rain latest hour (hover to see other rain measurements)
** Current wind speed in m/s (hover to see current wind gust speed)